createdAt,value
2023-12-07T00:02:21.098Z,98957.40
2023-12-07T00:04:54.460Z,98953.20
2023-12-07T00:07:27.766Z,98959.80
2023-12-07T00:10:01.060Z,98950.80
2023-12-07T00:12:34.501Z,98958.20
2023-12-07T00:15:10.239Z,98958.80
2023-12-07T00:17:43.882Z,98960.80
2023-12-07T00:20:17.720Z,98957.40
2023-12-07T00:22:50.935Z,98952.00
2023-12-07T00:25:24.423Z,98962.20
2023-12-07T00:27:57.869Z,98961.20
2023-12-07T00:30:31.142Z,98962.40
2023-12-07T00:33:04.547Z,98963.80
2023-12-07T00:35:37.928Z,98960.80
2023-12-07T00:38:11.852Z,98963.60
2023-12-07T00:40:45.232Z,98967.60
2023-12-07T00:43:19.367Z,98966.40
2023-12-07T00:45:52.660Z,98967.20
2023-12-07T00:48:26.122Z,98962.00
2023-12-07T00:50:59.413Z,98961.00
2023-12-07T00:53:32.669Z,98966.40
2023-12-07T00:56:08.803Z,98967.40
2023-12-07T00:58:42.073Z,98968.20
2023-12-07T01:01:15.456Z,98968.40
2023-12-07T01:03:48.777Z,98969.40
2023-12-07T01:06:22.165Z,98971.40
2023-12-07T01:08:55.861Z,98981.00
2023-12-07T01:11:29.379Z,98979.60
2023-12-07T01:14:02.717Z,98982.60
2023-12-07T01:16:36.152Z,98980.00
2023-12-07T01:19:09.565Z,98985.00
2023-12-07T01:21:43.052Z,98988.60
2023-12-07T01:24:16.944Z,98984.20
2023-12-07T01:26:50.617Z,98987.60
2023-12-07T01:29:24.068Z,98995.60
2023-12-07T01:31:57.327Z,98996.20
2023-12-07T01:34:30.850Z,98995.40
2023-12-07T01:37:04.391Z,98993.00
2023-12-07T01:39:37.862Z,99000.40
2023-12-07T01:42:13.154Z,98995.40
2023-12-07T01:44:46.505Z,99004.20
2023-12-07T01:47:20.636Z,98998.00
2023-12-07T01:49:54.635Z,98999.80
2023-12-07T01:52:31.150Z,98998.20
2023-12-07T01:55:05.012Z,98997.80
2023-12-07T01:57:39.165Z,98998.80
2023-12-07T02:00:16.136Z,98996.80
2023-12-07T02:02:50.821Z,98996.00
2023-12-07T02:05:24.829Z,98993.40
2023-12-07T02:07:58.704Z,98990.40
2023-12-07T02:10:32.278Z,98991.60
2023-12-07T02:13:05.910Z,98995.80
2023-12-07T02:15:39.682Z,98996.80
2023-12-07T02:18:26.433Z,99004.80
2023-12-07T02:21:14.064Z,99000.40
2023-12-07T02:23:52.509Z,98997.60
2023-12-07T02:26:38.519Z,99001.00
2023-12-07T02:29:11.745Z,99008.00
2023-12-07T02:31:45.012Z,99006.00
2023-12-07T02:34:18.648Z,99003.00
2023-12-07T02:36:53.668Z,99005.60
2023-12-07T02:39:28.309Z,99007.60
2023-12-07T02:42:02.624Z,99010.40
2023-12-07T02:44:36.220Z,99013.60
2023-12-07T02:47:10.304Z,99009.40
2023-12-07T02:49:43.651Z,99008.00
2023-12-07T02:52:17.448Z,99007.40
2023-12-07T02:54:50.929Z,99009.60
2023-12-07T02:57:24.239Z,99005.20
2023-12-07T02:59:57.554Z,99010.00
2023-12-07T03:02:31.046Z,99008.80
2023-12-07T03:05:04.449Z,99010.40
2023-12-07T03:07:38.018Z,99011.00
2023-12-07T03:10:13.160Z,99010.60
2023-12-07T03:12:46.712Z,99016.80
2023-12-07T03:15:20.100Z,99018.00
2023-12-07T03:17:54.193Z,99020.40
2023-12-07T03:20:27.559Z,99022.00
2023-12-07T03:23:00.964Z,99026.00
2023-12-07T03:25:34.605Z,99025.00
2023-12-07T03:28:08.311Z,99024.40
2023-12-07T03:30:41.603Z,99022.40
2023-12-07T03:33:14.976Z,99024.00
2023-12-07T03:35:48.691Z,99026.80
2023-12-07T03:38:21.990Z,99028.80
2023-12-07T03:40:55.381Z,99033.00
2023-12-07T03:43:29.026Z,99036.00
2023-12-07T03:46:06.114Z,99031.40
2023-12-07T03:48:39.868Z,99034.20
2023-12-07T03:51:17.685Z,99040.00
2023-12-07T03:53:51.882Z,99038.60
2023-12-07T03:56:31.775Z,99037.60
2023-12-07T03:59:05.121Z,99047.00
2023-12-07T04:01:38.462Z,99050.20
2023-12-07T04:04:11.935Z,99055.00
2023-12-07T04:06:45.224Z,99054.00
2023-12-07T04:09:18.576Z,99048.00
2023-12-07T04:11:51.815Z,99047.80
2023-12-07T04:14:25.474Z,99052.60
2023-12-07T04:16:58.799Z,99052.40
2023-12-07T04:19:32.220Z,99058.80
2023-12-07T04:22:05.725Z,99059.20
2023-12-07T04:24:39.011Z,99055.60
2023-12-07T04:27:12.506Z,99060.80
2023-12-07T04:29:45.860Z,99058.80
2023-12-07T04:32:19.089Z,99063.60
2023-12-07T04:34:52.394Z,99064.20
2023-12-07T04:37:25.857Z,99066.20
2023-12-07T04:39:59.843Z,99078.40
2023-12-07T04:42:33.315Z,99078.40
2023-12-07T04:45:07.712Z,99079.80
2023-12-07T04:47:41.045Z,99087.60
2023-12-07T04:50:15.094Z,99088.00
2023-12-07T04:52:48.417Z,99094.20
2023-12-07T04:55:22.270Z,99091.80
2023-12-07T04:57:55.698Z,99092.60
2023-12-07T05:00:29.561Z,99087.40
2023-12-07T05:03:03.909Z,99091.80
2023-12-07T05:05:37.571Z,99092.80
2023-12-07T05:08:10.971Z,99097.60
2023-12-07T05:10:44.392Z,99094.20
2023-12-07T05:13:17.664Z,99103.60
2023-12-07T05:15:51.198Z,99107.00
2023-12-07T05:18:24.498Z,99106.00
2023-12-07T05:20:57.846Z,99113.60
2023-12-07T05:23:31.135Z,99122.00
2023-12-07T05:26:04.863Z,99123.00
2023-12-07T05:28:40.005Z,99125.00
2023-12-07T05:31:19.763Z,99116.20
2023-12-07T05:33:53.228Z,99120.40
2023-12-07T05:36:27.437Z,99125.00
2023-12-07T05:39:01.237Z,99126.20
2023-12-07T05:41:34.529Z,99128.00
2023-12-07T05:44:09.006Z,99127.80
2023-12-07T05:46:45.393Z,99123.20
2023-12-07T05:49:19.245Z,99127.00
2023-12-07T05:51:54.037Z,99125.80
2023-12-07T05:54:27.676Z,99127.80
2023-12-07T05:57:01.227Z,99130.80
2023-12-07T05:59:34.520Z,99131.40
2023-12-07T06:02:08.420Z,99135.40
2023-12-07T06:04:42.619Z,99136.20
2023-12-07T06:07:15.888Z,99137.60
2023-12-07T06:09:49.158Z,99144.20
2023-12-07T06:12:23.313Z,99146.00
2023-12-07T06:14:57.000Z,99144.80
2023-12-07T06:17:30.400Z,99143.80
2023-12-07T06:20:04.654Z,99148.60
2023-12-07T06:22:38.272Z,99149.00
2023-12-07T06:25:13.990Z,99155.00
2023-12-07T06:27:47.451Z,99165.20
2023-12-07T06:30:21.837Z,99160.40
2023-12-07T06:32:55.256Z,99165.20
2023-12-07T06:35:28.974Z,99160.60
2023-12-07T06:38:03.143Z,99166.80
2023-12-07T06:40:36.580Z,99164.60
2023-12-07T06:43:10.041Z,99169.40
2023-12-07T06:45:44.190Z,99170.40
2023-12-07T06:48:17.703Z,99182.20
2023-12-07T06:50:51.110Z,99171.20
2023-12-07T06:53:24.403Z,99176.00
2023-12-07T06:55:57.715Z,99177.20
2023-12-07T06:58:31.091Z,99184.60
2023-12-07T07:01:04.603Z,99177.80
2023-12-07T07:03:37.965Z,99179.80
2023-12-07T07:06:12.112Z,99184.20
2023-12-07T07:08:47.325Z,99185.00
2023-12-07T07:11:20.999Z,99185.60
2023-12-07T07:13:54.382Z,99190.80
2023-12-07T07:16:27.987Z,99190.00
2023-12-07T07:19:02.206Z,99195.20
2023-12-07T07:21:35.804Z,99190.40
2023-12-07T07:24:10.211Z,99201.60
2023-12-07T07:26:43.905Z,99196.00
2023-12-07T07:29:17.393Z,99197.80
2023-12-07T07:31:50.666Z,99198.60
2023-12-07T07:34:24.686Z,99200.40
2023-12-07T07:36:58.165Z,99196.20
2023-12-07T07:39:31.740Z,99194.00
2023-12-07T07:42:06.004Z,99200.00
2023-12-07T07:44:39.261Z,99205.60
2023-12-07T07:47:12.617Z,99203.40
2023-12-07T07:49:46.052Z,99207.20
2023-12-07T07:52:20.425Z,99211.60
2023-12-07T07:54:53.849Z,99209.60
2023-12-07T07:57:27.661Z,99214.40
2023-12-07T08:00:01.506Z,99206.00
2023-12-07T08:02:34.895Z,99205.60
2023-12-07T08:05:10.706Z,99215.40
2023-12-07T08:07:44.542Z,99212.60
2023-12-07T08:10:18.027Z,99217.80
2023-12-07T08:12:51.536Z,99207.40
2023-12-07T08:15:25.160Z,99213.40
2023-12-07T08:17:59.398Z,99221.00
2023-12-07T08:20:32.834Z,99227.00
2023-12-07T08:23:06.719Z,99231.00
2023-12-07T08:25:40.405Z,99232.80
2023-12-07T08:28:14.387Z,99236.20
2023-12-07T08:30:48.063Z,99244.00
2023-12-07T08:33:21.728Z,99241.20
2023-12-07T08:35:56.373Z,99242.60
2023-12-07T08:38:30.548Z,99248.40
2023-12-07T08:41:04.133Z,99243.80
2023-12-07T08:43:37.489Z,99246.60
2023-12-07T08:46:11.624Z,99252.00
2023-12-07T08:48:45.216Z,99248.20
2023-12-07T08:51:18.552Z,99256.80
2023-12-07T08:53:54.603Z,99260.40
2023-12-07T08:56:28.185Z,99258.20
2023-12-07T08:59:01.834Z,99253.00
2023-12-07T09:01:35.555Z,99249.80
2023-12-07T09:04:09.104Z,99255.80
2023-12-07T09:06:43.182Z,99256.80
2023-12-07T09:09:16.548Z,99258.60
2023-12-07T09:11:49.864Z,99261.40
2023-12-07T09:14:24.576Z,99261.00
2023-12-07T09:16:57.938Z,99256.60
2023-12-07T09:19:31.328Z,99251.20
2023-12-07T09:22:04.707Z,99245.80
2023-12-07T09:24:38.101Z,99250.40
2023-12-07T09:27:12.916Z,99254.60
2023-12-07T09:29:46.210Z,99252.60
2023-12-07T09:32:24.725Z,99259.20
2023-12-07T09:35:03.330Z,99267.00
2023-12-07T09:37:36.813Z,99265.80
2023-12-07T09:40:16.926Z,99260.00
2023-12-07T09:42:50.974Z,99252.40
2023-12-07T09:45:26.445Z,99258.40
2023-12-07T09:48:02.462Z,99252.40
2023-12-07T09:50:37.077Z,99247.00
2023-12-07T09:53:11.760Z,99246.40
2023-12-07T09:55:45.365Z,99246.60
2023-12-07T09:58:28.753Z,99246.00
2023-12-07T10:01:05.846Z,99246.20
2023-12-07T10:03:39.498Z,99241.40
2023-12-07T10:06:13.085Z,99243.80
2023-12-07T10:08:48.026Z,99240.20
2023-12-07T10:11:22.044Z,99244.60
2023-12-07T10:13:56.132Z,99247.80
2023-12-07T10:16:29.575Z,99248.00
2023-12-07T10:19:31.120Z,99238.60
2023-12-07T10:22:17.329Z,99245.20
2023-12-07T10:24:51.383Z,99244.60
2023-12-07T10:27:24.848Z,99239.40
2023-12-07T10:29:59.404Z,99241.60
2023-12-07T10:32:32.960Z,99247.40
2023-12-07T10:35:08.066Z,99238.80
2023-12-07T10:37:41.659Z,99242.40
2023-12-07T10:40:16.463Z,99239.80
2023-12-07T10:42:58.085Z,99242.60
2023-12-07T10:45:34.171Z,99241.80
2023-12-07T10:48:10.644Z,99242.00
2023-12-07T10:50:52.777Z,99237.40
2023-12-07T10:53:35.027Z,99238.20
2023-12-07T10:56:13.880Z,99234.60
2023-12-07T10:58:49.659Z,99230.20
2023-12-07T11:01:24.794Z,99234.20
2023-12-07T11:04:00.549Z,99236.40
2023-12-07T11:06:34.058Z,99237.20
2023-12-07T11:09:17.353Z,99248.40
2023-12-07T11:12:00.168Z,99243.80
2023-12-07T11:14:35.204Z,99243.20
2023-12-07T11:17:09.089Z,99237.60
2023-12-07T11:19:52.385Z,99236.40
2023-12-07T11:22:27.462Z,99236.00
2023-12-07T11:25:05.225Z,99234.20
2023-12-07T11:27:41.672Z,99236.20
2023-12-07T11:30:17.974Z,99230.80
2023-12-07T11:32:51.552Z,99230.20
2023-12-07T11:35:25.692Z,99236.80
2023-12-07T11:38:13.977Z,99241.60
2023-12-07T11:40:47.714Z,99236.20
2023-12-07T11:43:45.014Z,99237.40
2023-12-07T11:46:18.595Z,99232.40
2023-12-07T11:48:56.644Z,99229.80
2023-12-07T11:51:32.969Z,99239.00
2023-12-07T11:54:06.808Z,99235.60
2023-12-07T11:56:40.076Z,99236.40
2023-12-07T11:59:16.178Z,99235.00
2023-12-07T12:01:53.331Z,99229.60
2023-12-07T12:04:30.010Z,99236.60
2023-12-07T12:07:03.454Z,99237.00
2023-12-07T12:09:36.801Z,99237.60
2023-12-07T12:12:10.857Z,99239.80
2023-12-07T12:14:44.859Z,99235.60
2023-12-07T12:17:21.485Z,99233.40
2023-12-07T12:19:56.237Z,99231.60
2023-12-07T12:22:29.664Z,99229.80
2023-12-07T12:25:03.572Z,99231.60
2023-12-07T12:27:37.841Z,99230.60
2023-12-07T12:30:14.446Z,99231.80
2023-12-07T12:32:51.541Z,99227.20
2023-12-07T12:35:26.015Z,99228.00
2023-12-07T12:38:00.254Z,99228.60
2023-12-07T12:40:34.101Z,99229.60
2023-12-07T12:43:08.504Z,99235.20
2023-12-07T12:45:42.543Z,99227.60
2023-12-07T12:48:16.084Z,99229.40
2023-12-07T12:50:49.956Z,99226.80
2023-12-07T12:53:24.360Z,99226.60
2023-12-07T12:55:59.036Z,99232.00
2023-12-07T12:58:32.512Z,99237.00
2023-12-07T13:01:07.948Z,99232.20
2023-12-07T13:03:41.369Z,99237.00
2023-12-07T13:06:15.471Z,99240.80
2023-12-07T13:08:52.533Z,99242.20
2023-12-07T13:11:25.999Z,99241.80
2023-12-07T13:14:00.093Z,99243.80
2023-12-07T13:16:33.392Z,99240.40
2023-12-07T13:19:08.354Z,99236.80
2023-12-07T13:21:41.699Z,99238.40
2023-12-07T13:24:15.262Z,99238.60
2023-12-07T13:26:49.695Z,99247.20
2023-12-07T13:29:32.627Z,99252.40
2023-12-07T13:32:11.056Z,99253.00
2023-12-07T13:34:45.246Z,99257.00
2023-12-07T13:37:19.590Z,99258.20
2023-12-07T13:39:58.624Z,99261.20
2023-12-07T13:42:34.042Z,99260.80
2023-12-07T13:45:09.617Z,99266.40
2023-12-07T13:47:44.293Z,99263.80
2023-12-07T13:50:17.988Z,99271.20
2023-12-07T13:52:51.799Z,99277.20
2023-12-07T13:55:25.518Z,99279.40
2023-12-07T13:58:01.349Z,99281.40
2023-12-07T14:00:35.510Z,99278.20
2023-12-07T14:03:09.631Z,99280.00
2023-12-07T14:05:43.322Z,99281.60
2023-12-07T14:08:16.918Z,99284.20
2023-12-07T14:10:50.354Z,99287.00
2023-12-07T14:13:26.632Z,99285.40
2023-12-07T14:16:09.708Z,99287.60
2023-12-07T14:19:00.527Z,99286.80
2023-12-07T14:21:42.629Z,99294.20
2023-12-07T14:24:22.274Z,99294.60
2023-12-07T14:26:56.589Z,99297.40
2023-12-07T14:29:30.159Z,99302.60
2023-12-07T14:32:05.184Z,99304.00
2023-12-07T14:34:39.039Z,99303.60
2023-12-07T14:37:12.885Z,99298.00
2023-12-07T14:39:46.403Z,99301.60
2023-12-07T14:42:20.412Z,99300.40
2023-12-07T14:44:54.173Z,99300.40
2023-12-07T14:47:27.621Z,99303.80
2023-12-07T14:50:02.763Z,99300.40
2023-12-07T14:52:37.727Z,99296.20
2023-12-07T14:55:12.462Z,99306.20
2023-12-07T14:57:45.967Z,99298.60
2023-12-07T15:00:21.009Z,99299.20
2023-12-07T15:02:55.007Z,99299.20
2023-12-07T15:05:28.480Z,99307.00
2023-12-07T15:08:01.894Z,99309.20
2023-12-07T15:10:35.228Z,99313.40
2023-12-07T15:13:09.107Z,99309.80
2023-12-07T15:15:43.009Z,99317.40
2023-12-07T15:18:17.501Z,99316.00
2023-12-07T15:20:51.073Z,99317.80
2023-12-07T15:23:24.864Z,99316.40
2023-12-07T15:25:58.527Z,99314.80
2023-12-07T15:28:31.923Z,99322.40
2023-12-07T15:31:05.633Z,99325.20
2023-12-07T15:33:40.122Z,99325.80
2023-12-07T15:36:14.323Z,99325.20
2023-12-07T15:38:47.828Z,99324.00
2023-12-07T15:41:21.207Z,99329.20
2023-12-07T15:43:54.618Z,99334.80
2023-12-07T15:46:28.056Z,99335.80
2023-12-07T15:49:01.622Z,99335.80
2023-12-07T15:51:35.253Z,99334.60
2023-12-07T15:54:09.254Z,99330.60
2023-12-07T15:56:45.940Z,99336.20
2023-12-07T15:59:19.385Z,99332.60
2023-12-07T16:01:55.478Z,99329.80
2023-12-07T16:04:33.142Z,99330.60
2023-12-07T16:07:11.172Z,99331.00
2023-12-07T16:09:46.461Z,99330.40
2023-12-07T16:12:20.241Z,99330.40
2023-12-07T16:14:57.376Z,99331.20
2023-12-07T16:17:31.521Z,99332.60
2023-12-07T16:20:05.502Z,99336.00
2023-12-07T16:22:39.194Z,99334.00
2023-12-07T16:25:17.271Z,99338.00
2023-12-07T16:27:53.982Z,99345.00
2023-12-07T16:30:27.685Z,99345.00
2023-12-07T16:33:03.234Z,99347.60
2023-12-07T16:35:37.327Z,99350.40
2023-12-07T16:38:11.126Z,99346.60
2023-12-07T16:40:44.893Z,99350.00
2023-12-07T16:43:19.258Z,99349.20
2023-12-07T16:45:53.880Z,99350.20
2023-12-07T16:48:27.516Z,99344.40
2023-12-07T16:51:01.043Z,99345.40
2023-12-07T16:53:35.770Z,99349.00
2023-12-07T16:56:12.490Z,99343.60
2023-12-07T16:58:45.858Z,99347.60
2023-12-07T17:01:19.193Z,99346.60
2023-12-07T17:03:53.111Z,99348.20
2023-12-07T17:06:26.694Z,99355.80
2023-12-07T17:09:08.120Z,99349.80
2023-12-07T17:11:47.270Z,99356.40
2023-12-07T17:14:20.701Z,99358.20
2023-12-07T17:16:54.136Z,99353.60
2023-12-07T17:19:33.099Z,99354.60
2023-12-07T17:22:12.494Z,99352.00
2023-12-07T17:24:45.872Z,99349.60
2023-12-07T17:27:19.295Z,99353.20
2023-12-07T17:29:52.694Z,99359.20
2023-12-07T17:32:26.534Z,99354.40
2023-12-07T17:35:00.998Z,99355.00
2023-12-07T17:37:34.343Z,99358.80
2023-12-07T17:40:09.531Z,99356.60
2023-12-07T17:42:42.920Z,99364.80
2023-12-07T17:45:16.537Z,99366.00
2023-12-07T17:47:50.423Z,99361.60
2023-12-07T17:50:23.794Z,99368.20
2023-12-07T17:52:57.170Z,99367.60
2023-12-07T17:55:30.439Z,99366.00
2023-12-07T17:58:03.753Z,99368.80
2023-12-07T18:00:37.039Z,99371.00
2023-12-07T18:03:10.598Z,99368.80
2023-12-07T18:05:44.202Z,99372.20
2023-12-07T18:08:17.599Z,99368.60
2023-12-07T18:10:51.186Z,99363.00
2023-12-07T18:13:24.530Z,99364.00
2023-12-07T18:15:59.301Z,99364.60
2023-12-07T18:18:33.416Z,99363.40
2023-12-07T18:21:07.141Z,99362.00
2023-12-07T18:23:40.624Z,99361.40
2023-12-07T18:26:14.450Z,99364.20
2023-12-07T18:28:48.166Z,99369.00
2023-12-07T18:31:22.138Z,99363.40
2023-12-07T18:33:55.644Z,99370.80
2023-12-07T18:36:29.022Z,99369.80
2023-12-07T18:39:03.242Z,99368.00
2023-12-07T18:41:37.672Z,99374.20
2023-12-07T18:44:11.217Z,99365.20
2023-12-07T18:46:44.467Z,99368.20
2023-12-07T18:49:17.965Z,99361.60
2023-12-07T18:51:51.300Z,99359.80
2023-12-07T18:54:25.147Z,99356.80
2023-12-07T18:56:58.600Z,99354.40
2023-12-07T18:59:32.304Z,99355.20
2023-12-07T19:02:06.442Z,99348.60
2023-12-07T19:04:39.823Z,99355.00
2023-12-07T19:07:13.285Z,99356.80
2023-12-07T19:09:46.630Z,99363.00
2023-12-07T19:12:19.985Z,99362.20
2023-12-07T19:14:53.364Z,99362.40
2023-12-07T19:17:26.925Z,99359.40
2023-12-07T19:20:00.387Z,99368.00
2023-12-07T19:22:34.051Z,99370.40
2023-12-07T19:25:09.119Z,99376.80
2023-12-07T19:27:42.438Z,99375.40
2023-12-07T19:30:16.947Z,99370.00
2023-12-07T19:32:50.781Z,99370.60
2023-12-07T19:35:24.477Z,99373.80
2023-12-07T19:37:57.756Z,99381.40
2023-12-07T19:40:31.498Z,99373.40
2023-12-07T19:43:04.871Z,99380.40
2023-12-07T19:45:38.996Z,99383.00
2023-12-07T19:48:12.928Z,99376.20
2023-12-07T19:50:46.338Z,99376.20
2023-12-07T19:53:21.231Z,99382.40
2023-12-07T19:55:54.611Z,99379.60
2023-12-07T19:58:28.817Z,99373.80
2023-12-07T20:01:02.293Z,99371.20
2023-12-07T20:03:35.773Z,99375.40
2023-12-07T20:06:09.937Z,99377.80
2023-12-07T20:08:43.347Z,99374.80
2023-12-07T20:11:21.368Z,99374.60
2023-12-07T20:13:54.690Z,99382.60
2023-12-07T20:16:28.162Z,99380.20
2023-12-07T20:19:04.736Z,99386.40
2023-12-07T20:21:42.729Z,99382.00
2023-12-07T20:24:17.623Z,99375.80
2023-12-07T20:26:50.945Z,99382.00
2023-12-07T20:29:27.420Z,99387.20
2023-12-07T20:32:00.901Z,99389.00
2023-12-07T20:34:34.430Z,99388.80
2023-12-07T20:37:08.146Z,99393.20
2023-12-07T20:39:41.972Z,99397.00
2023-12-07T20:42:15.553Z,99406.60
2023-12-07T20:44:49.132Z,99405.60
2023-12-07T20:47:22.699Z,99405.60
2023-12-07T20:49:56.183Z,99404.80
2023-12-07T20:52:30.087Z,99404.60
2023-12-07T20:55:03.770Z,99399.60
2023-12-07T20:57:37.301Z,99393.00
2023-12-07T21:00:13.789Z,99393.00
2023-12-07T21:02:47.203Z,99391.80
2023-12-07T21:05:20.713Z,99388.40
2023-12-07T21:07:54.116Z,99386.80
2023-12-07T21:10:27.606Z,99388.60
2023-12-07T21:13:01.584Z,99385.00
2023-12-07T21:15:35.910Z,99382.20
2023-12-07T21:18:10.064Z,99376.80
2023-12-07T21:20:43.926Z,99384.40
2023-12-07T21:23:17.385Z,99384.00
2023-12-07T21:25:50.879Z,99373.00
2023-12-07T21:28:24.400Z,99367.80
2023-12-07T21:30:58.175Z,99372.40
2023-12-07T21:33:31.656Z,99376.60
2023-12-07T21:36:07.202Z,99373.20
2023-12-07T21:38:43.760Z,99366.00
2023-12-07T21:41:17.107Z,99365.80
2023-12-07T21:43:50.778Z,99360.20
2023-12-07T21:46:24.327Z,99352.40
2023-12-07T21:48:57.923Z,99344.40
2023-12-07T21:51:31.449Z,99347.20
2023-12-07T21:54:05.076Z,99341.40
2023-12-07T21:56:38.545Z,99325.80
2023-12-07T21:59:12.286Z,99324.40
2023-12-07T22:01:45.604Z,99322.00
2023-12-07T22:04:19.043Z,99322.00
2023-12-07T22:06:53.157Z,99321.20
2023-12-07T22:09:26.413Z,99315.20
2023-12-07T22:11:59.804Z,99317.40
2023-12-07T22:14:33.124Z,99315.20
2023-12-07T22:17:06.916Z,99305.20
2023-12-07T22:19:40.211Z,99307.40
2023-12-07T22:22:15.360Z,99300.20
2023-12-07T22:24:49.451Z,99304.00
2023-12-07T22:27:23.593Z,99292.80
2023-12-07T22:29:57.207Z,99290.20
2023-12-07T22:32:30.668Z,99296.80
2023-12-07T22:35:04.340Z,99293.80
2023-12-07T22:37:37.917Z,99290.00
2023-12-07T22:40:13.443Z,99290.40
2023-12-07T22:42:46.852Z,99287.80
2023-12-07T22:45:20.807Z,99289.40
2023-12-07T22:47:54.330Z,99287.80
2023-12-07T22:50:27.742Z,99281.60
2023-12-07T22:53:01.050Z,99280.00
2023-12-07T22:55:34.368Z,99278.20
2023-12-07T22:58:07.836Z,99280.80
2023-12-07T23:00:41.817Z,99272.60
2023-12-07T23:03:15.257Z,99279.60
2023-12-07T23:05:48.613Z,99276.40
2023-12-07T23:08:22.379Z,99276.40
2023-12-07T23:10:55.654Z,99275.20
2023-12-07T23:13:29.003Z,99282.20
2023-12-07T23:16:02.295Z,99284.00
2023-12-07T23:18:35.938Z,99275.40
2023-12-07T23:21:15.290Z,99264.80
2023-12-07T23:23:48.875Z,99273.80
2023-12-07T23:26:22.176Z,99276.80
2023-12-07T23:28:55.833Z,99277.40
2023-12-07T23:31:29.036Z,99281.00
2023-12-07T23:34:02.488Z,99282.80
2023-12-07T23:36:36.081Z,99277.20
2023-12-07T23:39:09.570Z,99274.00
2023-12-07T23:41:43.048Z,99271.20
2023-12-07T23:44:16.423Z,99276.00
2023-12-07T23:46:50.484Z,99268.20
2023-12-07T23:49:23.912Z,99272.60
2023-12-07T23:51:57.901Z,99271.60
2023-12-07T23:54:31.352Z,99275.60
2023-12-07T23:57:04.832Z,99272.20
2023-12-07T23:59:38.231Z,99268.60
